Wetterdaten: Woche 31.12.12 - 06.01.13 (KW1)
Datum Zeit Temperatur Luftfeuchte Luftdruck Niederschlag Windrichtung Sonnenschein Solar Wind
31.12.2012 00:00 2,2 C 83 % 1025,5 hPa 0,0 l/m SW 0,00 h 0 W/m 8,2 km/h (2 Bft)
31.12.2012 01:00 2,1 C 87 % 1025,4 hPa 0,0 l/m SW 0,00 h 0 W/m 10,9 km/h (2 Bft)
31.12.2012 02:00 2,1 C 86 % 1025,4 hPa 0,0 l/m SW 0,00 h 0 W/m 12,5 km/h (3 Bft)
31.12.2012 03:00 2,5 C 82 % 1025,2 hPa 0,0 l/m SW 0,00 h 0 W/m 12,6 km/h (3 Bft)
31.12.2012 04:00 1,0 C 85 % 1024,7 hPa 0,0 l/m SW 0,00 h 0 W/m 4,0 km/h (1 Bft)
31.12.2012 05:00 0,2 C 88 % 1024,5 hPa 0,0 l/m N 0,00 h 0 W/m 2,7 km/h (1 Bft)
31.12.2012 06:00 0,0 C 90 % 1024,0 hPa 0,0 l/m SW 0,00 h 0 W/m 4,4 km/h (1 Bft)
31.12.2012 07:00 -0,2 C 90 % 1023,8 hPa 0,0 l/m N 0,00 h 0 W/m 2,8 km/h (1 Bft)
31.12.2012 08:00 -0,5 C 91 % 1023,5 hPa 0,0 l/m N 0,00 h 12 W/m 0,9 km/h (0 Bft)
31.12.2012 09:00 -0,5 C 92 % 1023,4 hPa 0,0 l/m N 0,00 h 55 W/m 1,6 km/h (1 Bft)
31.12.2012 10:00 0,3 C 93 % 1023,1 hPa 0,0 l/m SW 0,67 h 157 W/m 4,0 km/h (1 Bft)
31.12.2012 11:00 2,7 C 86 % 1022,3 hPa 0,0 l/m S 0,92 h 261 W/m 10,9 km/h (2 Bft)
31.12.2012 12:00 4,8 C 76 % 1021,1 hPa 0,0 l/m SW 1,00 h 306 W/m 13,2 km/h (3 Bft)
31.12.2012 13:00 6,3 C 73 % 1019,8 hPa 0,0 l/m SW 0,92 h 252 W/m 12,0 km/h (2 Bft)
31.12.2012 14:00 5,8 C 75 % 1018,9 hPa 0,0 l/m S-SW 0,08 h 107 W/m 8,6 km/h (2 Bft)
31.12.2012 15:00 5,2 C 77 % 1018,3 hPa 0,0 l/m S-SW 0,00 h 55 W/m 4,8 km/h (1 Bft)
31.12.2012 16:00 4,5 C 78 % 1017,5 hPa 0,0 l/m N 0,00 h 13 W/m 1,7 km/h (1 Bft)
31.12.2012 17:00 2,9 C 81 % 1017,0 hPa 0,0 l/m N 0,00 h 0 W/m 0,3 km/h (0 Bft)
31.12.2012 18:00 1,6 C 85 % 1016,5 hPa 0,0 l/m N 0,00 h 0 W/m 1,1 km/h (0 Bft)
31.12.2012 19:00 0,8 C 87 % 1016,2 hPa 0,0 l/m N 0,00 h 0 W/m 1,9 km/h (1 Bft)
31.12.2012 20:00 0,2 C 88 % 1015,7 hPa 0,0 l/m N 0,00 h 0 W/m 0,7 km/h (0 Bft)
31.12.2012 21:00 -0,5 C 89 % 1015,0 hPa 0,0 l/m N 0,00 h 0 W/m 0,5 km/h (0 Bft)
31.12.2012 22:00 -1,1 C 90 % 1014,1 hPa 0,0 l/m N 0,00 h 0 W/m 0,0 km/h (0 Bft)
31.12.2012 23:00 -1,5 C 91 % 1013,6 hPa 0,0 l/m N 0,00 h 0 W/m 0,0 km/h (0 Bft)
01.01.2013 00:00 -1,9 C 91 % 1013,0 hPa 0,0 l/m N 0,00 h 0 W/m 0,3 km/h (0 Bft)
01.01.2013 01:00 -2,1 C 93 % 1012,2 hPa 0,0 l/m N 0,00 h 0 W/m 0,7 km/h (0 Bft)
01.01.2013 02:00 -2,3 C 93 % 1011,9 hPa 0,0 l/m N 0,00 h 0 W/m 0,0 km/h (0 Bft)
01.01.2013 03:00 -2,7 C 93 % 1011,6 hPa 0,0 l/m N 0,00 h 0 W/m 0,0 km/h (0 Bft)
01.01.2013 04:00 -3,0 C 93 % 1011,5 hPa 0,0 l/m N 0,00 h 0 W/m 0,5 km/h (0 Bft)
01.01.2013 05:00 -3,1 C 94 % 1011,3 hPa 0,0 l/m N 0,00 h 0 W/m 0,1 km/h (0 Bft)
01.01.2013 06:00 -2,6 C 95 % 1011,1 hPa 0,0 l/m S-SW 0,00 h 0 W/m 3,1 km/h (1 Bft)
01.01.2013 07:00 -1,6 C 96 % 1010,9 hPa 0,0 l/m S-SW 0,00 h 0 W/m 2,5 km/h (1 Bft)
01.01.2013 08:00 -1,1 C 96 % 1011,0 hPa 0,0 l/m S-SW 0,00 h 9 W/m 3,2 km/h (1 Bft)
01.01.2013 09:00 -0,3 C 96 % 1010,9 hPa 0,0 l/m S-SW 0,00 h 31 W/m 6,7 km/h (2 Bft)
01.01.2013 10:00 0,7 C 96 % 1010,9 hPa 0,2 l/m SW 0,00 h 60 W/m 12,0 km/h (2 Bft)
01.01.2013 11:00 4,3 C 81 % 1011,0 hPa 0,0 l/m W-SW 0,17 h 136 W/m 18,5 km/h (3 Bft)
01.01.2013 12:00 4,8 C 81 % 1011,0 hPa 0,0 l/m SW 0,00 h 89 W/m 16,2 km/h (3 Bft)
01.01.2013 13:00 5,7 C 79 % 1011,0 hPa 0,0 l/m W-SW 0,00 h 73 W/m 22,5 km/h (4 Bft)
01.01.2013 14:00 5,9 C 79 % 1011,1 hPa 0,0 l/m W-SW 0,00 h 52 W/m 25,3 km/h (4 Bft)
01.01.2013 15:00 5,5 C 84 % 1011,4 hPa 0,0 l/m W-SW 0,00 h 14 W/m 22,2 km/h (4 Bft)
01.01.2013 16:00 4,9 C 90 % 1012,0 hPa 0,4 l/m SW 0,00 h 6 W/m 22,6 km/h (4 Bft)
01.01.2013 17:00 4,5 C 93 % 1012,4 hPa 0,2 l/m W-SW 0,00 h 0 W/m 16,2 km/h (3 Bft)
01.01.2013 18:00 4,3 C 93 % 1012,6 hPa 0,0 l/m W-SW 0,00 h 0 W/m 22,2 km/h (4 Bft)
01.01.2013 19:00 4,3 C 92 % 1012,8 hPa 0,0 l/m SW 0,00 h 0 W/m 18,8 km/h (3 Bft)
01.01.2013 20:00 4,2 C 92 % 1013,2 hPa 0,0 l/m SW 0,00 h 0 W/m 15,3 km/h (3 Bft)
01.01.2013 21:00 4,2 C 93 % 1013,7 hPa 0,0 l/m W-SW 0,00 h 0 W/m 18,4 km/h (3 Bft)
01.01.2013 22:00 4,3 C 93 % 1014,2 hPa 0,0 l/m SW 0,00 h 0 W/m 13,4 km/h (3 Bft)
01.01.2013 23:00 4,0 C 95 % 1014,8 hPa 0,2 l/m SW 0,00 h 0 W/m 5,7 km/h (1 Bft)
02.01.2013 00:00 3,9 C 95 % 1015,3 hPa 0,2 l/m W-NW 0,00 h 0 W/m 8,6 km/h (2 Bft)
02.01.2013 01:00 3,4 C 95 % 1015,9 hPa 0,0 l/m W-NW 0,00 h 0 W/m 5,1 km/h (1 Bft)
02.01.2013 02:00 3,0 C 93 % 1016,9 hPa 0,0 l/m W-NW 0,00 h 0 W/m 6,0 km/h (2 Bft)
02.01.2013 03:00 2,5 C 92 % 1018,0 hPa 0,0 l/m N 0,00 h 0 W/m 2,4 km/h (1 Bft)
02.01.2013 04:00 1,9 C 93 % 1018,8 hPa 0,0 l/m W-NW 0,00 h 0 W/m 3,9 km/h (1 Bft)
02.01.2013 05:00 1,4 C 93 % 1019,6 hPa 0,0 l/m N 0,00 h 0 W/m 2,8 km/h (1 Bft)
02.01.2013 06:00 0,6 C 92 % 1020,6 hPa 0,0 l/m N 0,00 h 0 W/m 0,8 km/h (0 Bft)
02.01.2013 07:00 -0,4 C 92 % 1021,2 hPa 0,0 l/m N 0,00 h 0 W/m 0,7 km/h (0 Bft)
02.01.2013 08:00 -0,9 C 93 % 1022,3 hPa 0,0 l/m N 0,00 h 10 W/m 0,8 km/h (0 Bft)
02.01.2013 09:00 -0,6 C 95 % 1023,6 hPa 0,0 l/m W 0,00 h 59 W/m 4,0 km/h (1 Bft)
02.01.2013 10:00 1,3 C 96 % 1024,6 hPa 0,0 l/m SW 0,00 h 52 W/m 8,4 km/h (2 Bft)
02.01.2013 11:00 2,1 C 94 % 1025,0 hPa 0,0 l/m W 0,00 h 79 W/m 8,2 km/h (2 Bft)
02.01.2013 12:00 3,4 C 85 % 1025,0 hPa 0,0 l/m W 0,75 h 296 W/m 13,3 km/h (3 Bft)
02.01.2013 13:00 4,0 C 76 % 1025,4 hPa 0,0 l/m W-NW 0,92 h 308 W/m 11,2 km/h (2 Bft)
02.01.2013 14:00 4,4 C 74 % 1026,0 hPa 0,0 l/m W-NW 0,83 h 208 W/m 9,4 km/h (2 Bft)
02.01.2013 15:00 4,4 C 72 % 1026,6 hPa 0,0 l/m W-NW 1,00 h 118 W/m 8,3 km/h (2 Bft)
02.01.2013 16:00 3,8 C 74 % 1027,4 hPa 0,0 l/m W-SW 0,00 h 12 W/m 5,8 km/h (1 Bft)
02.01.2013 17:00 2,1 C 78 % 1028,3 hPa 0,0 l/m N 0,00 h 0 W/m 0,3 km/h (0 Bft)
02.01.2013 18:00 0,5 C 83 % 1029,2 hPa 0,0 l/m N 0,00 h 0 W/m 0,1 km/h (0 Bft)
02.01.2013 19:00 -0,7 C 85 % 1030,2 hPa 0,0 l/m N 0,00 h 0 W/m 0,0 km/h (0 Bft)
02.01.2013 20:00 -1,4 C 88 % 1030,6 hPa 0,0 l/m N 0,00 h 0 W/m 0,3 km/h (0 Bft)
02.01.2013 21:00 -1,9 C 90 % 1031,1 hPa 0,0 l/m N 0,00 h 0 W/m 0,0 km/h (0 Bft)
02.01.2013 22:00 -2,4 C 90 % 1031,7 hPa 0,0 l/m N 0,00 h 0 W/m 0,0 km/h (0 Bft)
02.01.2013 23:00 -2,9 C 91 % 1032,1 hPa 0,0 l/m N 0,00 h 0 W/m 0,0 km/h (0 Bft)
03.01.2013 00:00 -3,1 C 92 % 1032,5 hPa 0,0 l/m N 0,00 h 0 W/m 0,0 km/h (0 Bft)
03.01.2013 01:00 -3,1 C 93 % 1032,5 hPa 0,0 l/m N 0,00 h 0 W/m 0,0 km/h (0 Bft)
03.01.2013 02:00 -3,1 C 94 % 1033,2 hPa 0,0 l/m N 0,00 h 0 W/m 1,1 km/h (0 Bft)
03.01.2013 03:00 -3,3 C 95 % 1033,6 hPa 0,0 l/m W-SW 0,00 h 0 W/m 0,8 km/h (0 Bft)
03.01.2013 04:00 -2,3 C 96 % 1034,0 hPa 0,0 l/m SW 0,00 h 0 W/m 9,5 km/h (2 Bft)
03.01.2013 05:00 -1,4 C 97 % 1034,4 hPa 0,0 l/m S-SW 0,00 h 0 W/m 8,8 km/h (2 Bft)
03.01.2013 06:00 -1,1 C 97 % 1034,3 hPa 0,0 l/m S-SW 0,00 h 0 W/m 13,4 km/h (3 Bft)
03.01.2013 07:00 -0,7 C 97 % 1035,2 hPa 0,0 l/m W-SW 0,00 h 0 W/m 10,7 km/h (2 Bft)
03.01.2013 08:00 -0,4 C 97 % 1035,6 hPa 0,0 l/m SW 0,00 h 9 W/m 7,9 km/h (2 Bft)
03.01.2013 09:00 -0,3 C 98 % 1036,0 hPa 0,2 l/m S-SW 0,00 h 44 W/m 13,4 km/h (3 Bft)
03.01.2013 10:00 0,1 C 98 % 1036,1 hPa 0,0 l/m SW 0,00 h 34 W/m 17,8 km/h (3 Bft)
03.01.2013 11:00 0,4 C 98 % 1037,0 hPa 0,0 l/m SW 0,00 h 39 W/m 8,6 km/h (2 Bft)
03.01.2013 12:00 0,9 C 97 % 1036,9 hPa 0,4 l/m SW 0,00 h 47 W/m 9,9 km/h (2 Bft)
03.01.2013 13:00 1,3 C 96 % 1036,7 hPa 0,4 l/m S-SW 0,00 h 57 W/m 10,2 km/h (2 Bft)
03.01.2013 14:00 1,4 C 96 % 1036,6 hPa 0,4 l/m SW 0,00 h 25 W/m 15,0 km/h (3 Bft)
03.01.2013 15:00 1,3 C 96 % 1036,9 hPa 0,0 l/m S-SW 0,00 h 13 W/m 17,0 km/h (3 Bft)
03.01.2013 16:00 1,4 C 96 % 1037,5 hPa 0,0 l/m S-SW 0,00 h 0 W/m 11,6 km/h (2 Bft)
03.01.2013 17:00 1,5 C 97 % 1037,8 hPa 0,0 l/m S-SW 0,00 h 0 W/m 13,4 km/h (3 Bft)
03.01.2013 18:00 1,7 C 97 % 1037,8 hPa 0,0 l/m SW 0,00 h 0 W/m 17,7 km/h (3 Bft)
03.01.2013 19:00 1,8 C 96 % 1037,8 hPa 0,0 l/m S-SW 0,00 h 0 W/m 13,8 km/h (3 Bft)
03.01.2013 20:00 2,1 C 96 % 1038,1 hPa 0,0 l/m S 0,00 h 0 W/m 11,6 km/h (2 Bft)
03.01.2013 21:00 2,2 C 96 % 1038,2 hPa 1,0 l/m S-SW 0,00 h 0 W/m 10,2 km/h (2 Bft)
03.01.2013 22:00 2,2 C 96 % 1038,3 hPa 0,0 l/m S-SO 0,00 h 0 W/m 10,9 km/h (2 Bft)
03.01.2013 23:00 2,2 C 96 % 1038,3 hPa 0,0 l/m S-SW 0,00 h 0 W/m 12,1 km/h (2 Bft)
04.01.2013 00:00 2,2 C 96 % 1038,1 hPa 0,2 l/m SW 0,00 h 0 W/m 11,3 km/h (2 Bft)
04.01.2013 01:00 2,2 C 96 % 1037,8 hPa 0,0 l/m SW 0,00 h 0 W/m 12,8 km/h (3 Bft)
04.01.2013 02:00 2,3 C 96 % 1038,3 hPa 0,0 l/m SW 0,00 h 0 W/m 8,2 km/h (2 Bft)
04.01.2013 03:00 2,4 C 96 % 1038,0 hPa 0,0 l/m S 0,00 h 0 W/m 9,8 km/h (2 Bft)
04.01.2013 04:00 2,7 C 96 % 1037,9 hPa 0,0 l/m S-SW 0,00 h 0 W/m 8,7 km/h (2 Bft)
04.01.2013 05:00 2,8 C 96 % 1037,9 hPa 0,0 l/m S-SW 0,00 h 0 W/m 10,8 km/h (2 Bft)
04.01.2013 06:00 2,8 C 96 % 1037,5 hPa 0,0 l/m S 0,00 h 0 W/m 9,5 km/h (2 Bft)
04.01.2013 07:00 3,1 C 97 % 1037,5 hPa 0,0 l/m SW 0,00 h 0 W/m 11,3 km/h (2 Bft)
04.01.2013 08:00 3,6 C 97 % 1038,0 hPa 0,0 l/m SW 0,00 h 7 W/m 9,5 km/h (2 Bft)
04.01.2013 09:00 3,5 C 97 % 1038,0 hPa 0,0 l/m S 0,00 h 16 W/m 8,6 km/h (2 Bft)
04.01.2013 10:00 3,8 C 97 % 1038,0 hPa 0,0 l/m S 0,00 h 27 W/m 10,8 km/h (2 Bft)
04.01.2013 11:00 4,0 C 97 % 1038,0 hPa 0,0 l/m S 0,00 h 26 W/m 11,3 km/h (2 Bft)
04.01.2013 12:00 4,4 C 98 % 1037,3 hPa 0,0 l/m S-SW 0,00 h 43 W/m 12,6 km/h (3 Bft)
04.01.2013 13:00 4,7 C 98 % 1036,4 hPa 0,0 l/m S-SW 0,00 h 44 W/m 10,1 km/h (2 Bft)
04.01.2013 14:00 4,9 C 98 % 1035,8 hPa 0,0 l/m S-SW 0,00 h 32 W/m 12,1 km/h (2 Bft)
04.01.2013 15:00 5,0 C 98 % 1035,8 hPa 0,2 l/m S-SW 0,00 h 17 W/m 9,1 km/h (2 Bft)
04.01.2013 16:00 4,9 C 98 % 1035,4 hPa 0,2 l/m S-SW 0,00 h 6 W/m 9,9 km/h (2 Bft)
04.01.2013 17:00 4,8 C 98 % 1035,0 hPa 0,0 l/m S-SW 0,00 h 0 W/m 10,5 km/h (2 Bft)
04.01.2013 18:00 4,7 C 98 % 1034,9 hPa 0,0 l/m S-SW 0,00 h 0 W/m 8,7 km/h (2 Bft)
04.01.2013 19:00 4,8 C 98 % 1034,5 hPa 0,0 l/m S-SW 0,00 h 0 W/m 10,1 km/h (2 Bft)
04.01.2013 20:00 4,8 C 98 % 1034,4 hPa 0,0 l/m S-SW 0,00 h 0 W/m 11,4 km/h (2 Bft)
04.01.2013 21:00 4,8 C 98 % 1034,3 hPa 0,0 l/m S-SW 0,00 h 0 W/m 11,3 km/h (2 Bft)
04.01.2013 22:00 4,7 C 99 % 1034,1 hPa 0,0 l/m S-SW 0,00 h 0 W/m 8,7 km/h (2 Bft)
04.01.2013 23:00 4,6 C 99 % 1033,9 hPa 0,0 l/m S-SW 0,00 h 0 W/m 6,7 km/h (2 Bft)
05.01.2013 00:00 4,7 C 99 % 1033,4 hPa 0,0 l/m S-SW 0,00 h 0 W/m 8,9 km/h (2 Bft)
05.01.2013 01:00 4,8 C 99 % 1032,7 hPa 0,0 l/m SW 0,00 h 0 W/m 8,0 km/h (2 Bft)
05.01.2013 02:00 5,0 C 99 % 1032,5 hPa 0,0 l/m W-SW 0,00 h 0 W/m 8,0 km/h (2 Bft)
05.01.2013 03:00 5,1 C 99 % 1032,3 hPa 0,0 l/m S-SW 0,00 h 0 W/m 7,3 km/h (2 Bft)
05.01.2013 04:00 5,5 C 99 % 1032,1 hPa 0,0 l/m W-SW 0,00 h 0 W/m 9,2 km/h (2 Bft)
05.01.2013 05:00 5,8 C 98 % 1031,8 hPa 0,0 l/m W-SW 0,00 h 0 W/m 11,7 km/h (2 Bft)
05.01.2013 06:00 6,0 C 97 % 1031,7 hPa 0,0 l/m W 0,00 h 0 W/m 15,4 km/h (3 Bft)
05.01.2013 07:00 6,2 C 95 % 1031,7 hPa 0,0 l/m W-SW 0,00 h 0 W/m 12,6 km/h (3 Bft)
05.01.2013 08:00 6,1 C 94 % 1031,7 hPa 0,0 l/m SW 0,00 h 6 W/m 10,1 km/h (2 Bft)
05.01.2013 09:00 6,1 C 94 % 1031,8 hPa 0,0 l/m W-NW 0,00 h 9 W/m 12,8 km/h (3 Bft)
05.01.2013 10:00 6,0 C 94 % 1032,2 hPa 0,4 l/m W 0,00 h 11 W/m 9,0 km/h (2 Bft)
05.01.2013 11:00 5,9 C 95 % 1032,1 hPa 0,8 l/m W 0,00 h 18 W/m 9,0 km/h (2 Bft)
05.01.2013 12:00 5,8 C 96 % 1031,6 hPa 1,4 l/m W 0,00 h 20 W/m 7,6 km/h (2 Bft)
05.01.2013 13:00 5,6 C 96 % 1031,0 hPa 1,2 l/m W 0,00 h 24 W/m 8,4 km/h (2 Bft)
05.01.2013 14:00 5,5 C 97 % 1030,8 hPa 1,4 l/m W 0,00 h 20 W/m 5,6 km/h (1 Bft)
05.01.2013 15:00 5,5 C 97 % 1031,0 hPa 1,2 l/m W 0,00 h 13 W/m 4,5 km/h (1 Bft)
05.01.2013 16:00 5,3 C 97 % 1031,3 hPa 1,2 l/m W 0,00 h 7 W/m 4,8 km/h (1 Bft)
05.01.2013 17:00 5,1 C 97 % 1031,4 hPa 0,6 l/m N 0,00 h 0 W/m 3,3 km/h (1 Bft)
05.01.2013 18:00 4,9 C 97 % 1031,7 hPa 0,6 l/m W 0,00 h 0 W/m 5,1 km/h (1 Bft)
05.01.2013 19:00 4,5 C 97 % 1032,1 hPa 0,8 l/m W 0,00 h 0 W/m 7,8 km/h (2 Bft)
05.01.2013 20:00 4,3 C 97 % 1032,3 hPa 0,6 l/m W-NW 0,00 h 0 W/m 9,3 km/h (2 Bft)
05.01.2013 21:00 4,1 C 97 % 1032,3 hPa 0,6 l/m N 0,00 h 0 W/m 1,6 km/h (1 Bft)
05.01.2013 22:00 4,1 C 97 % 1031,8 hPa 0,0 l/m W-NW 0,00 h 0 W/m 2,7 km/h (1 Bft)
05.01.2013 23:00 4,0 C 97 % 1031,7 hPa 0,0 l/m W-NW 0,00 h 0 W/m 2,8 km/h (1 Bft)
06.01.2013 00:00 3,9 C 97 % 1031,7 hPa 0,2 l/m N 0,00 h 0 W/m 0,7 km/h (0 Bft)
06.01.2013 01:00 3,8 C 98 % 1031,3 hPa 0,2 l/m W-NW 0,00 h 0 W/m 4,4 km/h (1 Bft)
06.01.2013 02:00 3,8 C 98 % 1031,7 hPa 0,0 l/m W 0,00 h 0 W/m 3,1 km/h (1 Bft)
06.01.2013 03:00 3,8 C 98 % 1031,8 hPa 0,0 l/m W 0,00 h 0 W/m 5,3 km/h (1 Bft)
06.01.2013 04:00 3,8 C 98 % 1031,4 hPa 0,0 l/m W 0,00 h 0 W/m 5,3 km/h (1 Bft)
06.01.2013 05:00 3,7 C 98 % 1030,9 hPa 0,0 l/m SW 0,00 h 0 W/m 8,0 km/h (2 Bft)
06.01.2013 06:00 3,7 C 98 % 1030,7 hPa 0,0 l/m W-SW 0,00 h 0 W/m 7,9 km/h (2 Bft)
06.01.2013 07:00 3,7 C 98 % 1030,5 hPa 0,0 l/m W 0,00 h 0 W/m 7,4 km/h (2 Bft)
06.01.2013 08:00 3,7 C 98 % 1030,3 hPa 0,0 l/m SW 0,00 h 6 W/m 9,4 km/h (2 Bft)
06.01.2013 09:00 3,6 C 98 % 1029,9 hPa 0,0 l/m W-SW 0,00 h 14 W/m 12,4 km/h (3 Bft)
06.01.2013 10:00 3,6 C 98 % 1029,8 hPa 0,0 l/m W 0,00 h 29 W/m 12,9 km/h (3 Bft)
06.01.2013 11:00 3,6 C 98 % 1030,1 hPa 0,0 l/m W-NW 0,00 h 31 W/m 13,6 km/h (3 Bft)
06.01.2013 12:00 3,7 C 98 % 1029,7 hPa 0,0 l/m W 0,00 h 36 W/m 7,6 km/h (2 Bft)
06.01.2013 13:00 4,0 C 98 % 1029,3 hPa 0,0 l/m W 0,00 h 28 W/m 8,6 km/h (2 Bft)
06.01.2013 14:00 4,5 C 96 % 1029,1 hPa 0,0 l/m W-SW 0,00 h 45 W/m 6,8 km/h (2 Bft)
06.01.2013 15:00 4,6 C 93 % 1029,3 hPa 0,0 l/m W 0,00 h 18 W/m 9,5 km/h (2 Bft)
06.01.2013 16:00 4,4 C 93 % 1029,3 hPa 0,0 l/m SW 0,00 h 6 W/m 10,3 km/h (2 Bft)
06.01.2013 17:00 4,3 C 93 % 1029,2 hPa 0,0 l/m SW 0,00 h 0 W/m 6,5 km/h (2 Bft)
06.01.2013 18:00 4,2 C 94 % 1029,3 hPa 0,0 l/m SW 0,00 h 0 W/m 6,4 km/h (2 Bft)
06.01.2013 19:00 4,0 C 95 % 1029,7 hPa 0,4 l/m SW 0,00 h 0 W/m 4,4 km/h (1 Bft)
06.01.2013 20:00 3,9 C 96 % 1029,4 hPa 0,4 l/m SW 0,00 h 0 W/m 6,8 km/h (2 Bft)
06.01.2013 21:00 3,9 C 97 % 1029,4 hPa 0,4 l/m W-SW 0,00 h 0 W/m 6,3 km/h (2 Bft)
06.01.2013 22:00 3,6 C 97 % 1029,7 hPa 0,0 l/m SW 0,00 h 0 W/m 7,4 km/h (2 Bft)
06.01.2013 23:00 3,4 C 97 % 1029,8 hPa 0,2 l/m SW 0,00 h 0 W/m 5,7 km/h (1 Bft)
Min-Datum _ 03.01.13 02.01.13 01.01.13 - - - - 31.12.12
_ Min-Zeit 03:20 15:40 07:25 - - - - 04:50
Minimum _ -3,3 C 70 % 1010,7 hPa - - - - 0,0 km/h (0 Bft)
Max-Datum _ 31.12.12 04.01.13 03.01.13 05.01.13 - 31.12.12 31.12.12 01.01.13
_ Max-Zeit 13:25 15:55 23:20 12:10 - 10:15 13:05 14:05
Maximum _ 6,6 C 100 % 1038,6 hPa 1,4 l/m - 0,08 h 381 W/m 37,0 km/h
W-SW (5 Bft)
Durchschnitt _ 2,5 C 93 % 1027,4 hPa #16,8 l/m SW #7:15 h 59 W/m 8,0 km/h (2 Bft)